createdAt,value
2019-04-07T00:02:30.726Z,68.06
2019-04-07T00:07:36.554Z,68.31
2019-04-07T00:12:45.478Z,68.43
2019-04-07T00:17:50.561Z,68.84
2019-04-07T00:22:55.835Z,68.61
2019-04-07T00:28:01.869Z,69.32
2019-04-07T00:33:08.484Z,69.99
2019-04-07T00:38:15.028Z,70.49
2019-04-07T00:43:20.117Z,70.76
2019-04-07T00:48:27.493Z,70.83
2019-04-07T00:53:33.030Z,70.46
2019-04-07T00:58:38.026Z,70.37
2019-04-07T01:03:43.116Z,70.36
2019-04-07T01:08:48.246Z,70.28
2019-04-07T01:13:53.956Z,70.29
2019-04-07T01:18:59.172Z,70.20
2019-04-07T01:24:04.477Z,70.46
2019-04-07T01:29:10.172Z,70.30
2019-04-07T01:34:15.863Z,70.79
2019-04-07T01:39:21.038Z,71.12
2019-04-07T01:44:37.350Z,71.23
2019-04-07T01:50:17.351Z,71.95
2019-04-07T01:55:37.280Z,72.16
2019-04-07T02:00:55.466Z,72.46
2019-04-07T02:06:25.615Z,72.31
2019-04-07T02:11:52.993Z,72.21
2019-04-07T02:17:36.316Z,72.36
2019-04-07T02:23:06.386Z,72.39
2019-04-07T02:28:36.248Z,72.89
2019-04-07T02:34:07.137Z,73.12
2019-04-07T02:39:31.085Z,73.43
2019-04-07T02:44:50.787Z,73.92
2019-04-07T02:50:24.906Z,74.68
2019-04-07T02:55:42.266Z,74.91
2019-04-07T03:01:06.948Z,74.87
2019-04-07T03:06:40.404Z,74.81
2019-04-07T03:11:42.959Z,75.17
2019-04-07T03:17:20.109Z,75.43
2019-04-07T03:22:50.761Z,75.68
2019-04-07T03:28:16.048Z,76.32
2019-04-07T03:33:42.621Z,76.71
2019-04-07T03:39:01.028Z,77.33
2019-04-07T03:44:22.972Z,77.81
2019-04-07T03:49:57.021Z,77.94
2019-04-07T03:55:20.630Z,77.60
2019-04-07T04:01:33.246Z,77.97
2019-04-07T04:07:22.433Z,78.60
2019-04-07T04:12:32.111Z,78.90
2019-04-07T04:17:37.112Z,79.65
2019-04-07T04:22:43.113Z,80.10
2019-04-07T04:27:48.777Z,80.39
2019-04-07T04:32:54.395Z,80.77
2019-04-07T04:38:00.268Z,80.72
2019-04-07T04:43:05.243Z,81.03
2019-04-07T04:48:10.297Z,80.77
2019-04-07T04:53:15.370Z,81.29
2019-04-07T04:58:39.812Z,81.25
2019-04-07T05:03:48.308Z,81.74
2019-04-07T05:08:54.580Z,81.72
2019-04-07T05:14:00.290Z,81.65
2019-04-07T05:19:06.173Z,81.79
2019-04-07T05:24:11.649Z,81.80
2019-04-07T05:29:17.130Z,81.90
2019-04-07T05:34:23.372Z,81.95
2019-04-07T05:39:28.512Z,82.23
2019-04-07T05:44:34.441Z,82.53
2019-04-07T05:49:39.468Z,83.06
2019-04-07T05:54:45.094Z,83.13
2019-04-07T05:59:51.248Z,83.04
2019-04-07T06:04:58.598Z,82.93
2019-04-07T06:10:03.546Z,83.24
2019-04-07T06:15:09.693Z,83.05
2019-04-07T06:20:15.905Z,83.23
2019-04-07T06:25:22.406Z,82.35
2019-04-07T06:30:30.153Z,81.65
2019-04-07T06:35:36.794Z,80.66
2019-04-07T06:40:42.687Z,80.39
2019-04-07T06:45:55.019Z,79.07
2019-04-07T06:51:17.345Z,79.02
2019-04-07T06:56:34.113Z,79.18
2019-04-07T07:02:13.325Z,78.83
2019-04-07T07:07:56.291Z,78.88
2019-04-07T07:13:28.813Z,78.60
2019-04-07T07:18:42.280Z,78.19
2019-04-07T07:24:00.224Z,77.08
2019-04-07T07:29:06.684Z,76.97
2019-04-07T07:34:12.324Z,75.46
2019-04-07T07:39:22.874Z,74.97
2019-04-07T07:44:27.944Z,73.36
2019-04-07T07:49:35.164Z,71.49
2019-04-07T07:54:39.738Z,70.53
2019-04-07T07:59:44.850Z,69.98
2019-04-07T08:04:50.019Z,69.92
2019-04-07T08:09:56.604Z,67.48
2019-04-07T08:15:01.873Z,65.06
2019-04-07T08:20:07.847Z,64.96
2019-04-07T08:25:13.103Z,64.54
2019-04-07T08:30:18.449Z,64.59
2019-04-07T08:35:24.329Z,62.87
2019-04-07T08:40:29.414Z,62.21
2019-04-07T08:45:35.053Z,61.53
2019-04-07T08:50:41.037Z,60.71
2019-04-07T08:55:48.648Z,60.40
2019-04-07T09:00:54.135Z,59.88
2019-04-07T09:06:01.004Z,59.98
2019-04-07T09:11:12.380Z,60.12
2019-04-07T09:16:37.104Z,60.25
2019-04-07T09:21:51.831Z,59.57
2019-04-07T09:27:06.963Z,59.11
2019-04-07T09:32:33.430Z,57.63
2019-04-07T09:37:54.114Z,58.19
2019-04-07T09:43:21.228Z,55.47
2019-04-07T09:48:44.166Z,55.30
2019-04-07T09:53:59.171Z,55.16
2019-04-07T09:59:25.715Z,53.15
2019-04-07T10:04:42.476Z,52.68
2019-04-07T10:10:11.617Z,51.54
2019-04-07T10:15:30.621Z,52.35
2019-04-07T10:21:03.846Z,49.65
2019-04-07T10:26:14.650Z,48.47
2019-04-07T10:31:47.750Z,48.92
2019-04-07T10:37:17.855Z,47.12
2019-04-07T10:43:01.438Z,46.62
2019-04-07T10:48:31.797Z,45.70
2019-04-07T10:53:58.665Z,45.54
2019-04-07T10:59:25.641Z,43.14
2019-04-07T11:04:49.721Z,42.13
2019-04-07T11:10:37.299Z,40.90
2019-04-07T11:16:02.911Z,40.34
2019-04-07T11:21:34.975Z,39.51
2019-04-07T11:27:13.059Z,37.49
2019-04-07T11:32:37.342Z,38.57
2019-04-07T11:37:49.850Z,37.37
2019-04-07T11:43:20.806Z,38.78
2019-04-07T11:48:39.181Z,36.86
2019-04-07T11:54:37.071Z,35.14
2019-04-07T11:59:58.686Z,35.14
2019-04-07T12:05:21.131Z,37.65
2019-04-07T12:10:54.919Z,34.21
2019-04-07T12:16:10.376Z,34.22
2019-04-07T12:21:24.013Z,34.28
2019-04-07T12:26:43.791Z,33.43
2019-04-07T12:32:06.065Z,33.14
2019-04-07T12:37:28.454Z,33.15
2019-04-07T12:42:42.922Z,33.93
2019-04-07T12:48:05.848Z,32.00
2019-04-07T12:53:32.230Z,31.66
2019-04-07T12:58:48.594Z,31.21
2019-04-07T13:04:25.554Z,31.43
2019-04-07T13:09:49.206Z,29.89
2019-04-07T13:15:10.986Z,31.30
2019-04-07T13:20:39.746Z,30.26
2019-04-07T13:26:03.410Z,31.21
2019-04-07T13:31:41.731Z,32.51
2019-04-07T13:36:55.633Z,35.05
2019-04-07T13:42:23.017Z,34.74
2019-04-07T13:47:42.306Z,35.49
2019-04-07T13:53:14.585Z,37.34
2019-04-07T13:58:31.903Z,36.71
2019-04-07T14:03:56.490Z,37.73
2019-04-07T14:09:31.688Z,37.88
2019-04-07T14:15:07.541Z,37.22
2019-04-07T14:20:47.461Z,37.65
2019-04-07T14:26:10.355Z,36.87
2019-04-07T14:31:45.976Z,37.99
2019-04-07T14:37:12.494Z,37.47
2019-04-07T14:42:41.745Z,37.77
2019-04-07T14:47:59.023Z,38.23
2019-04-07T14:53:30.882Z,39.75
2019-04-07T14:58:57.341Z,39.84
2019-04-07T15:04:02.259Z,41.35
2019-04-07T15:09:18.804Z,41.94
2019-04-07T15:14:25.340Z,42.52
2019-04-07T15:19:33.209Z,42.82
2019-04-07T15:24:49.558Z,43.32
2019-04-07T15:29:55.549Z,41.92
2019-04-07T15:35:02.313Z,42.64
2019-04-07T15:40:10.806Z,43.15
2019-04-07T15:45:16.770Z,43.73
2019-04-07T15:51:04.887Z,44.13
2019-04-07T15:56:14.152Z,43.40
2019-04-07T16:01:19.213Z,43.89
2019-04-07T16:06:36.100Z,44.21
2019-04-07T16:11:43.465Z,44.25
2019-04-07T16:17:02.106Z,43.69
2019-04-07T16:22:11.256Z,43.93
2019-04-07T16:27:17.280Z,44.26
2019-04-07T16:32:46.955Z,44.26
2019-04-07T16:37:53.242Z,44.55
2019-04-07T16:43:11.709Z,44.47
2019-04-07T16:48:10.809Z,44.51
2019-04-07T16:53:39.067Z,43.84
2019-04-07T16:58:45.309Z,44.45
2019-04-07T17:03:51.295Z,44.89
2019-04-07T17:08:57.768Z,45.22
2019-04-07T17:14:04.197Z,45.73
2019-04-07T17:19:09.857Z,45.77
2019-04-07T17:24:15.268Z,46.13
2019-04-07T17:29:22.660Z,46.47
2019-04-07T17:34:29.385Z,46.99
2019-04-07T17:39:40.608Z,47.19
2019-04-07T17:45:06.220Z,47.43
2019-04-07T17:50:40.448Z,47.64
2019-04-07T17:56:22.892Z,48.22
2019-04-07T18:01:56.770Z,48.65
2019-04-07T18:07:34.149Z,48.63
2019-04-07T18:12:49.766Z,48.89
2019-04-07T18:18:14.435Z,49.19
2019-04-07T18:23:34.916Z,49.47
2019-04-07T18:28:55.653Z,49.89
2019-04-07T18:34:31.513Z,50.17
2019-04-07T18:40:07.256Z,50.53
2019-04-07T18:45:48.439Z,50.50
2019-04-07T18:51:23.157Z,50.98
2019-04-07T18:56:59.348Z,51.09
2019-04-07T19:02:44.198Z,51.44
2019-04-07T19:08:36.611Z,51.50
2019-04-07T19:14:30.638Z,51.64
2019-04-07T19:19:36.304Z,51.47
2019-04-07T19:25:23.930Z,51.65
2019-04-07T19:31:00.506Z,51.57
2019-04-07T19:36:36.860Z,51.66
2019-04-07T19:42:07.501Z,51.34
2019-04-07T19:47:32.688Z,51.50
2019-04-07T19:53:11.220Z,51.51
2019-04-07T19:58:38.644Z,51.63
2019-04-07T20:04:05.317Z,51.75
2019-04-07T20:09:45.819Z,51.90
2019-04-07T20:15:17.972Z,51.84
2019-04-07T20:20:40.589Z,52.04
2019-04-07T20:26:03.621Z,52.09
2019-04-07T20:31:20.822Z,52.47
2019-04-07T20:36:54.839Z,52.07
2019-04-07T20:42:05.240Z,52.20
2019-04-07T20:47:34.120Z,52.21
2019-04-07T20:53:10.059Z,52.50
2019-04-07T20:58:41.599Z,52.46
2019-04-07T21:04:00.772Z,52.73
2019-04-07T21:09:25.949Z,52.34
2019-04-07T21:14:49.387Z,52.29
2019-04-07T21:20:14.474Z,52.60
2019-04-07T21:25:29.140Z,52.85
2019-04-07T21:30:48.607Z,52.65
2019-04-07T21:36:22.143Z,52.97
2019-04-07T21:41:54.333Z,53.19
2019-04-07T21:47:25.512Z,51.89
2019-04-07T21:53:22.909Z,52.14
2019-04-07T21:58:39.899Z,51.72
2019-04-07T22:04:01.218Z,51.47
2019-04-07T22:09:26.865Z,51.85
2019-04-07T22:14:32.813Z,51.41
2019-04-07T22:19:44.605Z,51.55
2019-04-07T22:24:57.981Z,51.80
2019-04-07T22:30:06.381Z,51.84
2019-04-07T22:35:18.879Z,52.10
2019-04-07T22:40:25.574Z,51.95
2019-04-07T22:45:32.787Z,52.46
2019-04-07T22:50:38.819Z,51.76
2019-04-07T22:55:44.938Z,52.14
2019-04-07T23:00:50.565Z,52.13
2019-04-07T23:05:58.227Z,52.46
2019-04-07T23:11:04.358Z,52.39
2019-04-07T23:16:14.550Z,52.26
2019-04-07T23:21:17.232Z,52.42
2019-04-07T23:26:22.355Z,52.60
2019-04-07T23:31:29.960Z,53.02
2019-04-07T23:36:34.963Z,53.24
2019-04-07T23:41:41.401Z,53.10
2019-04-07T23:46:46.409Z,53.34
2019-04-07T23:51:51.646Z,53.57
2019-04-07T23:56:56.637Z,53.48
